createdAt,value
2017-10-02T00:00:49.201Z,86.01
2017-10-02T00:01:49.182Z,85.44
2017-10-02T00:02:49.157Z,86.01
2017-10-02T00:04:10.150Z,85.91
2017-10-02T00:04:49.131Z,86.11
2017-10-02T00:05:49.087Z,85.91
2017-10-02T00:06:49.074Z,86.20
2017-10-02T00:07:49.065Z,86.01
2017-10-02T00:08:49.021Z,86.11
2017-10-02T00:10:10.013Z,86.20
2017-10-02T00:10:49.008Z,86.01
2017-10-02T00:11:48.978Z,86.01
2017-10-02T00:12:48.954Z,85.82
2017-10-02T00:13:48.937Z,86.01
2017-10-02T00:14:48.899Z,85.91
2017-10-02T00:16:09.902Z,86.01
2017-10-02T00:16:48.844Z,86.11
2017-10-02T00:17:48.820Z,86.11
2017-10-02T00:18:48.828Z,86.11
2017-10-02T00:19:48.803Z,86.11
2017-10-02T00:20:48.795Z,86.11
2017-10-02T00:22:09.745Z,86.20
2017-10-02T00:22:48.726Z,86.30
2017-10-02T00:23:48.715Z,86.11
2017-10-02T00:24:48.694Z,86.11
2017-10-02T00:25:48.692Z,85.91
2017-10-02T00:26:48.634Z,85.91
2017-10-02T00:28:09.618Z,86.01
2017-10-02T00:28:48.649Z,85.91
2017-10-02T00:29:48.594Z,86.11
2017-10-02T00:30:48.561Z,86.20
2017-10-02T00:31:48.545Z,86.11
2017-10-02T00:32:48.497Z,86.20
2017-10-02T00:34:09.511Z,86.30
2017-10-02T00:34:48.478Z,86.77
2017-10-02T00:35:48.444Z,86.49
2017-10-02T00:36:48.448Z,86.11
2017-10-02T00:37:48.407Z,86.39
2017-10-02T00:38:48.400Z,86.54
2017-10-02T00:40:09.406Z,86.58
2017-10-02T00:40:48.347Z,86.58
2017-10-02T00:41:48.341Z,86.39
2017-10-02T00:42:48.310Z,86.39
2017-10-02T00:43:48.323Z,86.49
2017-10-02T00:44:48.291Z,86.39
2017-10-02T00:46:09.254Z,85.72
2017-10-02T00:46:48.230Z,86.58
2017-10-02T00:47:48.216Z,86.20
2017-10-02T00:48:48.178Z,86.58
2017-10-02T00:49:48.161Z,86.30
2017-10-02T00:50:48.132Z,86.39
2017-10-02T00:52:09.120Z,86.68
2017-10-02T00:52:48.080Z,86.49
2017-10-02T00:53:48.129Z,86.58
2017-10-02T00:54:48.068Z,86.68
2017-10-02T00:55:48.046Z,86.77
2017-10-02T00:56:48.019Z,86.39
2017-10-02T00:58:08.990Z,86.77
2017-10-02T00:58:47.970Z,86.58
2017-10-02T00:59:47.966Z,86.49
2017-10-02T01:00:47.920Z,86.39
2017-10-02T01:01:47.905Z,86.49
2017-10-02T01:02:47.874Z,86.49
2017-10-02T01:04:08.859Z,86.87
2017-10-02T01:04:47.866Z,86.39
2017-10-02T01:05:47.833Z,86.49
2017-10-02T01:06:47.801Z,86.39
2017-10-02T01:07:47.792Z,86.20
2017-10-02T01:08:47.788Z,86.39
2017-10-02T01:10:08.739Z,86.58
2017-10-02T01:10:47.697Z,86.49
2017-10-02T01:11:47.685Z,86.49
2017-10-02T01:12:47.691Z,86.49
2017-10-02T01:13:47.657Z,86.11
2017-10-02T01:14:47.648Z,86.30
2017-10-02T01:16:08.618Z,86.20
2017-10-02T01:16:47.603Z,86.11
2017-10-02T01:17:47.593Z,86.20
2017-10-02T01:18:47.534Z,86.20
2017-10-02T01:19:47.543Z,86.30
2017-10-02T01:20:47.511Z,86.30
2017-10-02T01:22:08.485Z,86.20
2017-10-02T01:22:47.460Z,86.11
2017-10-02T01:23:47.463Z,86.39
2017-10-02T01:24:47.449Z,86.11
2017-10-02T01:25:47.406Z,86.58
2017-10-02T01:26:47.408Z,86.58
2017-10-02T01:28:08.390Z,86.58
2017-10-02T01:28:47.371Z,86.39
2017-10-02T01:29:47.312Z,86.39
2017-10-02T01:30:47.285Z,86.77
2017-10-02T01:31:47.277Z,86.77
2017-10-02T01:32:47.243Z,86.20
2017-10-02T01:34:08.232Z,86.11
2017-10-02T01:34:47.192Z,86.11
2017-10-02T01:35:47.202Z,86.05
2017-10-02T01:36:47.157Z,86.11
2017-10-02T01:37:47.156Z,86.30
2017-10-02T01:38:47.138Z,86.34
2017-10-02T01:40:08.083Z,86.24
2017-10-02T01:40:47.057Z,86.82
2017-10-02T01:41:47.071Z,86.72
2017-10-02T01:42:47.050Z,86.63
2017-10-02T01:43:47.007Z,86.05
2017-10-02T01:44:47.008Z,86.24
2017-10-02T01:46:07.963Z,86.43
2017-10-02T01:46:46.970Z,86.34
2017-10-02T01:47:46.940Z,86.05
2017-10-02T01:48:46.906Z,86.24
2017-10-02T01:49:46.871Z,85.96
2017-10-02T01:50:46.865Z,85.86
2017-10-02T01:52:07.915Z,86.53
2017-10-02T01:52:46.802Z,86.24
2017-10-02T01:53:46.796Z,86.53
2017-10-02T01:54:46.760Z,86.43
2017-10-02T01:55:46.752Z,86.63
2017-10-02T01:56:46.732Z,86.53
2017-10-02T01:58:07.712Z,86.63
2017-10-02T01:58:46.690Z,86.24
2017-10-02T01:59:46.657Z,86.43
2017-10-02T02:00:46.647Z,86.34
2017-10-02T02:01:46.617Z,86.53
2017-10-02T02:02:46.606Z,86.63
2017-10-02T02:04:07.572Z,86.43
2017-10-02T02:04:46.557Z,86.34
2017-10-02T02:05:46.567Z,86.24
2017-10-02T02:06:46.528Z,86.34
2017-10-02T02:07:46.506Z,86.34
2017-10-02T02:08:46.471Z,86.34
2017-10-02T02:10:07.453Z,86.24
2017-10-02T02:10:46.430Z,86.34
2017-10-02T02:11:46.415Z,86.05
2017-10-02T02:12:46.386Z,86.05
2017-10-02T02:13:46.361Z,86.34
2017-10-02T02:14:46.346Z,86.15
2017-10-02T02:16:07.325Z,86.24
2017-10-02T02:16:46.358Z,86.34
2017-10-02T02:17:46.290Z,86.34
2017-10-02T02:18:46.271Z,86.53
2017-10-02T02:19:46.224Z,86.34
2017-10-02T02:20:46.223Z,86.53
2017-10-02T02:22:07.217Z,86.72
2017-10-02T02:22:46.197Z,86.53
2017-10-02T02:23:46.151Z,86.43
2017-10-02T02:24:46.142Z,86.34
2017-10-02T02:25:46.112Z,86.34
2017-10-02T02:26:46.087Z,86.15
2017-10-02T02:28:07.090Z,86.24
2017-10-02T02:28:46.073Z,86.34
2017-10-02T02:29:46.032Z,86.72
2017-10-02T02:30:46.020Z,87.10
2017-10-02T02:31:45.985Z,87.10
2017-10-02T02:32:45.989Z,86.91
2017-10-02T02:34:06.938Z,86.91
2017-10-02T02:34:46.011Z,86.82
2017-10-02T02:35:45.899Z,86.82
2017-10-02T02:36:45.872Z,86.91
2017-10-02T02:37:45.869Z,86.53
2017-10-02T02:38:45.873Z,86.63
2017-10-02T02:40:06.870Z,86.53
2017-10-02T02:40:45.815Z,87.01
2017-10-02T02:41:45.793Z,87.01
2017-10-02T02:42:45.786Z,87.10
2017-10-02T02:43:45.741Z,87.01
2017-10-02T02:44:45.720Z,86.82
2017-10-02T02:46:06.682Z,86.63
2017-10-02T02:46:45.675Z,86.72
2017-10-02T02:47:45.644Z,87.01
2017-10-02T02:48:45.621Z,86.91
2017-10-02T02:49:45.605Z,87.10
2017-10-02T02:50:45.582Z,87.10
2017-10-02T02:52:06.556Z,87.01
2017-10-02T02:52:45.562Z,87.01
2017-10-02T02:53:45.520Z,86.91
2017-10-02T02:54:45.506Z,86.63
2017-10-02T02:55:45.477Z,86.63
2017-10-02T02:56:45.457Z,86.82
2017-10-02T02:58:06.443Z,86.72
2017-10-02T02:58:45.416Z,86.91
2017-10-02T02:59:45.389Z,87.10
2017-10-02T03:00:45.381Z,87.19
2017-10-02T03:01:45.406Z,86.67
2017-10-02T03:02:45.347Z,86.38
2017-10-02T03:04:06.314Z,86.57
2017-10-02T03:04:45.291Z,86.67
2017-10-02T03:05:45.262Z,86.19
2017-10-02T03:06:45.274Z,86.10
2017-10-02T03:07:45.227Z,86.29
2017-10-02T03:08:45.231Z,86.38
2017-10-02T03:10:06.198Z,85.81
2017-10-02T03:10:45.255Z,86.10
2017-10-02T03:11:45.157Z,86.10
2017-10-02T03:12:45.108Z,86.43
2017-10-02T03:13:45.118Z,86.24
2017-10-02T03:14:45.075Z,85.66
2017-10-02T03:16:06.123Z,85.53
2017-10-02T03:16:45.046Z,85.66
2017-10-02T03:17:45.026Z,85.66
2017-10-02T03:18:44.991Z,85.47
2017-10-02T03:19:44.975Z,85.66
2017-10-02T03:20:44.962Z,86.24
2017-10-02T03:22:05.933Z,86.24
2017-10-02T03:22:44.911Z,85.47
2017-10-02T03:23:44.884Z,85.47
2017-10-02T03:24:44.886Z,85.66
2017-10-02T03:25:44.850Z,85.57
2017-10-02T03:26:44.820Z,85.66
2017-10-02T03:28:05.806Z,86.24
2017-10-02T03:28:44.782Z,86.33
2017-10-02T03:29:44.797Z,86.14
2017-10-02T03:30:44.747Z,86.24
2017-10-02T03:31:44.727Z,86.05
2017-10-02T03:32:44.757Z,86.24
2017-10-02T03:34:05.747Z,86.24
2017-10-02T03:34:44.672Z,86.14
2017-10-02T03:35:44.721Z,86.43
2017-10-02T03:36:44.615Z,86.14
2017-10-02T03:37:44.610Z,85.28
2017-10-02T03:38:44.580Z,85.57
2017-10-02T03:40:05.559Z,86.43
2017-10-02T03:40:44.565Z,85.57
2017-10-02T03:41:44.527Z,85.57
2017-10-02T03:42:44.505Z,85.57
2017-10-02T03:43:44.546Z,85.47
2017-10-02T03:44:44.443Z,85.66
2017-10-02T03:46:05.437Z,85.47
2017-10-02T03:46:44.424Z,85.76
2017-10-02T03:47:44.404Z,86.24
2017-10-02T03:48:44.381Z,86.05
2017-10-02T03:49:44.368Z,86.05
2017-10-02T03:50:44.342Z,86.14
2017-10-02T03:52:05.395Z,86.24
2017-10-02T03:52:44.292Z,86.14
2017-10-02T03:53:44.272Z,86.14
2017-10-02T03:54:44.252Z,86.24
2017-10-02T03:55:44.280Z,86.24
2017-10-02T03:56:44.220Z,86.24
2017-10-02T03:58:05.194Z,86.28
2017-10-02T03:58:44.189Z,86.28
2017-10-02T03:59:44.147Z,86.43
2017-10-02T04:00:44.133Z,86.18
2017-10-02T04:01:44.110Z,85.61
2017-10-02T04:02:44.108Z,85.71
2017-10-02T04:04:05.073Z,85.71
2017-10-02T04:04:44.049Z,85.71
2017-10-02T04:05:44.037Z,85.71
2017-10-02T04:06:43.990Z,86.09
2017-10-02T04:07:43.983Z,86.09
2017-10-02T04:08:43.976Z,85.52
2017-10-02T04:10:04.951Z,85.52
2017-10-02T04:10:43.968Z,85.52
2017-10-02T04:11:43.903Z,85.33
2017-10-02T04:12:43.881Z,85.61
2017-10-02T04:13:43.863Z,85.61
2017-10-02T04:14:43.838Z,85.61
2017-10-02T04:16:04.826Z,85.52
2017-10-02T04:16:43.793Z,85.71
2017-10-02T04:17:43.784Z,85.61
2017-10-02T04:18:43.784Z,85.61
2017-10-02T04:19:43.781Z,85.71
2017-10-02T04:20:43.730Z,85.61
2017-10-02T04:22:04.698Z,85.52
2017-10-02T04:22:43.679Z,85.71
2017-10-02T04:23:43.692Z,85.52
2017-10-02T04:24:43.634Z,85.71
2017-10-02T04:25:43.667Z,85.61
2017-10-02T04:26:43.612Z,85.71
2017-10-02T04:28:04.621Z,85.52
2017-10-02T04:28:43.698Z,85.61
2017-10-02T04:29:43.535Z,85.52
2017-10-02T04:30:43.549Z,85.61
2017-10-02T04:31:43.483Z,85.42
2017-10-02T04:32:43.491Z,85.61
2017-10-02T04:34:04.481Z,85.52
2017-10-02T04:34:43.426Z,85.71
2017-10-02T04:35:43.422Z,85.80
2017-10-02T04:36:43.387Z,85.52
2017-10-02T04:37:43.364Z,85.71
2017-10-02T04:38:43.346Z,85.71
2017-10-02T04:40:04.329Z,85.61
2017-10-02T04:40:43.353Z,86.28
2017-10-02T04:41:43.283Z,86.28
2017-10-02T04:42:43.271Z,85.71
2017-10-02T04:43:43.245Z,86.18
2017-10-02T04:44:43.259Z,86.28
2017-10-02T04:46:04.211Z,85.99
2017-10-02T04:46:43.176Z,86.09
2017-10-02T04:47:43.186Z,86.18
2017-10-02T04:48:43.147Z,86.28
2017-10-02T04:49:43.130Z,85.90
2017-10-02T04:50:43.115Z,85.99
2017-10-02T04:52:04.083Z,85.99
2017-10-02T04:52:43.053Z,85.90
2017-10-02T04:53:43.830Z,86.32
2017-10-02T04:54:43.031Z,86.18
2017-10-02T04:55:43.037Z,86.28
2017-10-02T04:56:42.985Z,86.28
2017-10-02T04:58:03.985Z,85.80
2017-10-02T04:58:42.938Z,86.32
2017-10-02T04:59:42.921Z,86.22
2017-10-02T05:00:42.898Z,86.04
2017-10-02T05:01:42.909Z,86.13
2017-10-02T05:02:42.852Z,86.13
2017-10-02T05:04:03.842Z,86.13
2017-10-02T05:04:42.811Z,85.94
2017-10-02T05:05:42.797Z,86.22
2017-10-02T05:06:42.780Z,85.94
2017-10-02T05:07:42.795Z,86.22
2017-10-02T05:08:42.747Z,85.94
2017-10-02T05:10:03.750Z,86.42
2017-10-02T05:10:42.765Z,85.94
2017-10-02T05:11:42.773Z,86.32
2017-10-02T05:12:42.771Z,86.32
2017-10-02T05:13:42.634Z,86.13
2017-10-02T05:14:42.644Z,86.32
2017-10-02T05:16:03.624Z,86.32
2017-10-02T05:16:42.568Z,86.13
2017-10-02T05:17:42.626Z,86.22
2017-10-02T05:18:42.569Z,86.04
2017-10-02T05:19:42.526Z,85.94
2017-10-02T05:20:42.548Z,86.22
2017-10-02T05:22:03.480Z,86.32
2017-10-02T05:22:42.464Z,86.32
2017-10-02T05:23:42.432Z,86.32
2017-10-02T05:24:42.437Z,86.51
2017-10-02T05:25:42.386Z,86.32
2017-10-02T05:26:42.368Z,86.32
2017-10-02T05:28:03.378Z,86.22
2017-10-02T05:28:42.325Z,86.22
2017-10-02T05:29:42.303Z,86.51
2017-10-02T05:30:42.290Z,86.51
2017-10-02T05:31:42.271Z,85.56
2017-10-02T05:32:42.237Z,85.75
2017-10-02T05:34:03.236Z,86.55
2017-10-02T05:34:42.218Z,86.32
2017-10-02T05:35:42.253Z,86.55
2017-10-02T05:36:42.168Z,86.22
2017-10-02T05:37:42.165Z,86.36
2017-10-02T05:38:42.179Z,86.36
2017-10-02T05:40:03.109Z,86.36
2017-10-02T05:40:42.091Z,86.55
2017-10-02T05:41:42.090Z,85.60
2017-10-02T05:42:42.051Z,86.55
2017-10-02T05:43:42.047Z,86.36
2017-10-02T05:44:42.008Z,85.80
2017-10-02T05:46:02.989Z,86.36
2017-10-02T05:46:41.981Z,86.18
2017-10-02T05:47:41.964Z,86.18
2017-10-02T05:48:41.937Z,86.55
2017-10-02T05:49:41.912Z,86.36
2017-10-02T05:50:41.890Z,86.36
2017-10-02T05:52:02.879Z,86.27
2017-10-02T05:52:41.866Z,85.70
2017-10-02T05:53:41.839Z,85.70
2017-10-02T05:54:41.817Z,85.70
2017-10-02T05:55:41.796Z,85.80
2017-10-02T05:56:41.769Z,85.70
2017-10-02T05:58:02.757Z,85.99
2017-10-02T05:58:41.759Z,85.51
2017-10-02T05:59:41.707Z,85.80
2017-10-02T06:00:41.692Z,85.60
2017-10-02T06:01:41.674Z,85.51
2017-10-02T06:02:41.649Z,85.36
2017-10-02T06:04:02.631Z,85.17
2017-10-02T06:04:41.624Z,85.46
2017-10-02T06:05:41.587Z,85.36
2017-10-02T06:06:41.566Z,85.36
2017-10-02T06:07:41.542Z,85.74
2017-10-02T06:08:41.535Z,85.55
2017-10-02T06:10:02.515Z,85.64
2017-10-02T06:10:41.479Z,85.46
2017-10-02T06:11:41.467Z,85.46
2017-10-02T06:12:41.450Z,85.64
2017-10-02T06:13:41.419Z,85.74
2017-10-02T06:14:41.408Z,85.64
2017-10-02T06:16:02.390Z,85.36
2017-10-02T06:16:41.362Z,85.55
2017-10-02T06:17:41.354Z,85.64
2017-10-02T06:18:41.342Z,85.55
2017-10-02T06:19:41.316Z,85.55
2017-10-02T06:20:41.287Z,85.74
2017-10-02T06:22:02.287Z,85.64
2017-10-02T06:22:41.246Z,85.36
2017-10-02T06:23:41.229Z,85.64
2017-10-02T06:24:41.209Z,85.74
2017-10-02T06:25:41.195Z,85.55
2017-10-02T06:26:41.169Z,85.50
2017-10-02T06:28:02.162Z,85.69
2017-10-02T06:28:41.139Z,85.88
2017-10-02T06:29:41.120Z,85.60
2017-10-02T06:30:41.090Z,85.60
2017-10-02T06:31:41.077Z,85.69
2017-10-02T06:32:41.105Z,85.88
2017-10-02T06:34:02.085Z,85.69
2017-10-02T06:34:41.032Z,84.83
2017-10-02T06:35:41.023Z,84.83
2017-10-02T06:36:40.973Z,84.92
2017-10-02T06:37:40.953Z,85.31
2017-10-02T06:38:40.937Z,85.31
2017-10-02T06:40:01.945Z,85.31
2017-10-02T06:40:40.896Z,85.31
2017-10-02T06:41:40.873Z,85.69
2017-10-02T06:42:40.876Z,85.12
2017-10-02T06:43:40.839Z,85.41
2017-10-02T06:44:40.820Z,85.41
2017-10-02T06:46:01.896Z,85.31
2017-10-02T06:46:40.837Z,85.41
2017-10-02T06:47:40.781Z,85.45
2017-10-02T06:48:40.755Z,85.35
2017-10-02T06:49:40.728Z,84.88
2017-10-02T06:50:40.710Z,84.78
2017-10-02T06:52:01.693Z,85.06
2017-10-02T06:52:40.678Z,85.25
2017-10-02T06:53:40.679Z,85.16
2017-10-02T06:54:40.629Z,84.69
2017-10-02T06:55:40.609Z,84.20
2017-10-02T06:56:40.626Z,84.97
2017-10-02T06:58:01.572Z,84.88
2017-10-02T06:58:40.547Z,84.59
2017-10-02T06:59:40.540Z,84.59
2017-10-02T07:00:40.544Z,84.53
2017-10-02T07:01:40.493Z,84.69
2017-10-02T07:02:40.479Z,84.59
2017-10-02T07:04:01.459Z,85.06
2017-10-02T07:04:40.437Z,84.59
2017-10-02T07:05:40.416Z,84.44
2017-10-02T07:06:40.401Z,84.34
2017-10-02T07:07:40.386Z,84.72
2017-10-02T07:08:40.366Z,84.44
2017-10-02T07:10:01.392Z,84.34
2017-10-02T07:10:40.332Z,84.63
2017-10-02T07:11:40.307Z,84.78
2017-10-02T07:12:40.321Z,84.82
2017-10-02T07:13:40.288Z,85.39
2017-10-02T07:14:40.248Z,85.06
2017-10-02T07:16:01.279Z,85.01
2017-10-02T07:16:40.224Z,85.21
2017-10-02T07:17:40.197Z,85.01
2017-10-02T07:18:40.187Z,85.21
2017-10-02T07:19:40.155Z,85.11
2017-10-02T07:20:40.151Z,85.11
2017-10-02T07:22:01.114Z,85.30
2017-10-02T07:22:40.098Z,85.30
2017-10-02T07:23:40.078Z,85.11
2017-10-02T07:24:40.070Z,85.16
2017-10-02T07:25:40.044Z,85.30
2017-10-02T07:26:40.054Z,85.06
2017-10-02T07:28:01.012Z,85.21
2017-10-02T07:28:39.978Z,84.92
2017-10-02T07:29:39.982Z,84.92
2017-10-02T07:30:39.946Z,84.82
2017-10-02T07:31:39.928Z,85.11
2017-10-02T07:32:39.914Z,85.11
2017-10-02T07:34:00.917Z,85.01
2017-10-02T07:34:39.877Z,84.78
2017-10-02T07:35:39.858Z,85.11
2017-10-02T07:36:39.849Z,84.92
2017-10-02T07:37:39.830Z,85.21
2017-10-02T07:38:39.800Z,85.21
2017-10-02T07:40:00.793Z,85.01
2017-10-02T07:40:39.767Z,85.30
2017-10-02T07:41:39.797Z,85.01
2017-10-02T07:42:39.737Z,84.53
2017-10-02T07:43:39.710Z,85.30
2017-10-02T07:44:39.676Z,84.25
2017-10-02T07:46:00.686Z,84.34
2017-10-02T07:46:39.652Z,84.82
2017-10-02T07:47:39.631Z,84.82
2017-10-02T07:48:39.615Z,84.53
2017-10-02T07:49:39.589Z,85.01
2017-10-02T07:50:39.582Z,84.82
2017-10-02T07:52:00.559Z,84.82
2017-10-02T07:52:39.553Z,84.72
2017-10-02T07:53:39.515Z,85.01
2017-10-02T07:54:39.500Z,85.21
2017-10-02T07:55:39.494Z,85.11
2017-10-02T07:56:39.463Z,85.01
2017-10-02T07:58:00.464Z,85.25
2017-10-02T07:58:39.428Z,85.25
2017-10-02T07:59:39.405Z,84.48
2017-10-02T08:00:39.391Z,84.48
2017-10-02T08:01:39.403Z,84.67
2017-10-02T08:02:39.362Z,84.29
2017-10-02T08:04:00.364Z,84.39
2017-10-02T08:04:39.338Z,84.48
2017-10-02T08:05:39.302Z,84.77
2017-10-02T08:06:39.289Z,84.77
2017-10-02T08:07:39.260Z,84.39
2017-10-02T08:08:39.229Z,84.29
2017-10-02T08:10:00.226Z,84.39
2017-10-02T08:10:39.207Z,84.48
2017-10-02T08:11:39.187Z,84.29
2017-10-02T08:12:39.169Z,84.20
2017-10-02T08:13:39.146Z,84.20
2017-10-02T08:14:39.235Z,84.48
2017-10-02T08:16:00.151Z,84.29
2017-10-02T08:16:39.343Z,84.39
2017-10-02T08:17:39.151Z,84.10
2017-10-02T08:18:39.082Z,84.20
2017-10-02T08:19:39.035Z,84.14
2017-10-02T08:20:39.027Z,84.43
2017-10-02T08:22:00.001Z,84.39
2017-10-02T08:22:38.971Z,84.14
2017-10-02T08:23:38.981Z,83.57
2017-10-02T08:24:38.980Z,83.86
2017-10-02T08:25:38.923Z,83.95
2017-10-02T08:26:38.922Z,84.05
2017-10-02T08:27:59.891Z,83.67
2017-10-02T08:28:38.911Z,83.95
2017-10-02T08:29:38.879Z,84.05
2017-10-02T08:30:38.831Z,83.57
2017-10-02T08:31:38.821Z,83.76
2017-10-02T08:32:38.819Z,84.72
2017-10-02T08:33:59.796Z,84.62
2017-10-02T08:34:38.762Z,84.39
2017-10-02T08:35:38.752Z,84.33
2017-10-02T08:36:38.756Z,84.48
2017-10-02T08:37:38.774Z,84.58
2017-10-02T08:38:38.698Z,84.72
2017-10-02T08:39:59.682Z,84.23
2017-10-02T08:40:38.705Z,84.14
2017-10-02T08:41:38.633Z,84.33
2017-10-02T08:42:38.635Z,84.33
2017-10-02T08:43:38.593Z,84.23
2017-10-02T08:44:38.581Z,84.14
2017-10-02T08:45:59.567Z,84.33
2017-10-02T08:46:38.536Z,84.23
2017-10-02T08:47:38.537Z,84.33
2017-10-02T08:48:38.521Z,84.62
2017-10-02T08:49:38.489Z,84.62
2017-10-02T08:50:38.479Z,84.43
2017-10-02T08:51:59.464Z,84.43
2017-10-02T08:52:38.449Z,84.43
2017-10-02T08:53:38.424Z,84.48
2017-10-02T08:54:38.444Z,84.52
2017-10-02T08:55:38.386Z,84.23
2017-10-02T08:56:38.364Z,84.33
2017-10-02T08:57:59.352Z,84.43
2017-10-02T08:58:38.329Z,84.91
2017-10-02T08:59:38.313Z,84.23
2017-10-02T09:00:38.295Z,84.29
2017-10-02T09:01:38.279Z,84.96
2017-10-02T09:02:40.824Z,84.58
2017-10-02T09:04:01.364Z,84.58
2017-10-02T09:04:38.216Z,85.25
2017-10-02T09:05:38.286Z,84.86
2017-10-02T09:06:38.181Z,84.58
2017-10-02T09:07:38.167Z,84.96
2017-10-02T09:08:38.205Z,85.25
2017-10-02T09:09:59.123Z,85.49
2017-10-02T09:10:38.098Z,85.30
2017-10-02T09:11:38.122Z,85.49
2017-10-02T09:12:38.074Z,85.21
2017-10-02T09:13:38.065Z,85.68
2017-10-02T09:14:38.055Z,85.63
2017-10-02T09:15:59.029Z,85.77
2017-10-02T09:16:37.999Z,85.58
2017-10-02T09:17:37.983Z,85.68
2017-10-02T09:18:37.956Z,85.87
2017-10-02T09:19:37.940Z,85.63
2017-10-02T09:20:37.928Z,85.63
2017-10-02T09:21:58.909Z,85.63
2017-10-02T09:22:37.933Z,85.34
2017-10-02T09:23:37.868Z,85.44
2017-10-02T09:24:37.849Z,84.96
2017-10-02T09:25:37.832Z,84.96
2017-10-02T09:26:37.816Z,85.05
2017-10-02T09:27:58.801Z,84.86
2017-10-02T09:28:37.771Z,84.96
2017-10-02T09:29:37.760Z,85.34
2017-10-02T09:30:37.739Z,85.44
2017-10-02T09:31:37.721Z,85.72
2017-10-02T09:32:37.700Z,85.82
2017-10-02T09:33:58.680Z,85.82
2017-10-02T09:34:37.677Z,85.53
2017-10-02T09:35:37.648Z,85.53
2017-10-02T09:36:37.640Z,85.91
2017-10-02T09:37:37.613Z,85.58
2017-10-02T09:38:37.640Z,85.58
2017-10-02T09:39:58.583Z,85.58
2017-10-02T09:40:37.554Z,85.49
2017-10-02T09:41:37.536Z,85.58
2017-10-02T09:42:37.562Z,85.77
2017-10-02T09:43:37.506Z,86.35
2017-10-02T09:44:37.477Z,85.72
2017-10-02T09:45:58.464Z,85.82
2017-10-02T09:46:37.430Z,86.01
2017-10-02T09:47:37.448Z,86.01
2017-10-02T09:48:37.420Z,86.01
2017-10-02T09:49:38.813Z,85.77
2017-10-02T09:50:37.392Z,85.82
2017-10-02T09:51:58.350Z,85.53
2017-10-02T09:52:37.328Z,85.25
2017-10-02T09:53:37.424Z,85.72
2017-10-02T09:54:37.343Z,85.53
2017-10-02T09:55:37.291Z,85.82
2017-10-02T09:56:37.276Z,85.72
2017-10-02T09:57:58.245Z,85.63
2017-10-02T09:58:37.235Z,85.63
2017-10-02T09:59:37.207Z,85.82
2017-10-02T10:00:37.181Z,86.01
2017-10-02T10:01:37.163Z,85.72
2017-10-02T10:02:37.138Z,85.63
2017-10-02T10:03:58.121Z,85.91
2017-10-02T10:04:37.105Z,85.63
2017-10-02T10:05:37.105Z,86.01
2017-10-02T10:06:37.086Z,85.63
2017-10-02T10:07:37.150Z,85.82
2017-10-02T10:08:37.042Z,85.91
2017-10-02T10:09:58.029Z,86.01
2017-10-02T10:10:37.018Z,85.72
2017-10-02T10:11:36.983Z,85.53
2017-10-02T10:12:37.018Z,85.63
2017-10-02T10:13:36.954Z,85.63
2017-10-02T10:14:36.933Z,85.44
2017-10-02T10:15:57.914Z,86.01
2017-10-02T10:16:36.888Z,85.72
2017-10-02T10:17:36.937Z,85.34
2017-10-02T10:18:36.870Z,85.91
2017-10-02T10:19:36.834Z,85.91
2017-10-02T10:20:36.811Z,85.44
2017-10-02T10:21:57.831Z,85.34
2017-10-02T10:22:36.806Z,85.44
2017-10-02T10:23:36.813Z,85.44
2017-10-02T10:24:36.784Z,85.34
2017-10-02T10:25:36.782Z,85.44
2017-10-02T10:26:36.744Z,85.34
2017-10-02T10:27:57.727Z,85.34
2017-10-02T10:28:36.679Z,85.63
2017-10-02T10:29:36.687Z,85.25
2017-10-02T10:30:36.644Z,85.53
2017-10-02T10:31:36.627Z,85.72
2017-10-02T10:32:36.627Z,85.82
2017-10-02T10:33:57.584Z,86.01
2017-10-02T10:34:36.563Z,85.53
2017-10-02T10:35:36.647Z,85.53
2017-10-02T10:36:36.568Z,85.63
2017-10-02T10:37:36.514Z,85.67
2017-10-02T10:38:36.492Z,85.67
2017-10-02T10:39:57.457Z,85.58
2017-10-02T10:40:36.521Z,85.58
2017-10-02T10:41:36.472Z,85.86
2017-10-02T10:42:36.432Z,85.96
2017-10-02T10:43:36.412Z,85.96
2017-10-02T10:44:36.390Z,86.05
2017-10-02T10:45:57.370Z,85.77
2017-10-02T10:46:36.366Z,85.58
2017-10-02T10:47:36.329Z,85.86
2017-10-02T10:48:36.355Z,85.77
2017-10-02T10:49:36.289Z,85.86
2017-10-02T10:50:36.287Z,86.15
2017-10-02T10:51:57.242Z,86.58
2017-10-02T10:52:36.240Z,86.53
2017-10-02T10:53:36.208Z,86.43
2017-10-02T10:54:36.184Z,86.58
2017-10-02T10:55:36.216Z,86.58
2017-10-02T10:56:36.163Z,86.68
2017-10-02T10:57:57.135Z,86.58
2017-10-02T10:58:36.122Z,86.30
2017-10-02T10:59:36.175Z,86.87
2017-10-02T11:00:36.081Z,86.77
2017-10-02T11:01:36.067Z,87.06
2017-10-02T11:02:36.050Z,86.30
2017-10-02T11:03:57.048Z,86.72
2017-10-02T11:04:36.049Z,86.34
2017-10-02T11:05:36.001Z,86.53
2017-10-02T11:06:35.972Z,86.53
2017-10-02T11:07:35.960Z,86.63
2017-10-02T11:08:36.038Z,86.53
2017-10-02T11:09:56.909Z,86.43
2017-10-02T11:10:35.927Z,86.24
2017-10-02T11:11:35.907Z,85.96
2017-10-02T11:12:35.872Z,86.82
2017-10-02T11:13:35.844Z,86.63
2017-10-02T11:14:35.829Z,86.63
2017-10-02T11:15:56.805Z,86.91
2017-10-02T11:16:35.808Z,86.82
2017-10-02T11:17:35.763Z,87.10
2017-10-02T11:18:35.752Z,86.91
2017-10-02T11:19:35.739Z,87.35
2017-10-02T11:20:35.716Z,87.44
2017-10-02T11:21:56.764Z,87.35
2017-10-02T11:22:35.681Z,87.92
2017-10-02T11:23:35.710Z,87.92
2017-10-02T11:24:35.643Z,87.82
2017-10-02T11:25:35.628Z,88.30
2017-10-02T11:26:35.633Z,88.30
2017-10-02T11:27:56.591Z,88.30
2017-10-02T11:28:35.572Z,88.20
2017-10-02T11:29:35.579Z,87.92
2017-10-02T11:30:35.590Z,88.30
2017-10-02T11:31:35.519Z,87.63
2017-10-02T11:32:35.498Z,88.01
2017-10-02T11:33:56.479Z,88.25
2017-10-02T11:34:35.461Z,88.15
2017-10-02T11:35:35.440Z,88.25
2017-10-02T11:36:35.452Z,88.06
2017-10-02T11:37:35.410Z,88.25
2017-10-02T11:38:35.381Z,88.25
2017-10-02T11:39:56.378Z,88.34
2017-10-02T11:40:35.352Z,88.25
2017-10-02T11:41:35.344Z,88.34
2017-10-02T11:42:35.331Z,88.25
2017-10-02T11:43:35.300Z,88.06
2017-10-02T11:44:35.274Z,87.77
2017-10-02T11:45:56.282Z,88.73
2017-10-02T11:46:35.273Z,88.63
2017-10-02T11:47:35.225Z,88.44
2017-10-02T11:48:35.220Z,88.63
2017-10-02T11:49:35.182Z,88.54
2017-10-02T11:50:35.194Z,88.15
2017-10-02T11:51:56.145Z,88.34
2017-10-02T11:52:35.165Z,88.25
2017-10-02T11:53:35.112Z,88.34
2017-10-02T11:54:35.120Z,88.54
2017-10-02T11:55:35.067Z,87.91
2017-10-02T11:56:35.099Z,88.10
2017-10-02T11:57:56.057Z,88.10
2017-10-02T11:58:35.032Z,88.20
2017-10-02T11:59:34.995Z,88.29
2017-10-02T12:00:35.030Z,88.29
2017-10-02T12:01:34.962Z,87.62
2017-10-02T12:02:34.956Z,87.62
2017-10-02T12:03:56.013Z,88.01
2017-10-02T12:04:34.908Z,87.82
2017-10-02T12:05:34.898Z,87.57
2017-10-02T12:06:34.896Z,87.57
2017-10-02T12:07:34.867Z,87.38
2017-10-02T12:08:34.835Z,87.86
2017-10-02T12:09:55.815Z,87.95
2017-10-02T12:10:34.808Z,87.57
2017-10-02T12:11:34.793Z,88.15
2017-10-02T12:12:34.779Z,88.34
2017-10-02T12:13:34.751Z,88.34
2017-10-02T12:14:34.735Z,87.48
2017-10-02T12:15:55.713Z,88.34
2017-10-02T12:16:34.694Z,88.34
2017-10-02T12:17:34.673Z,88.24
2017-10-02T12:18:34.655Z,88.34
2017-10-02T12:19:34.633Z,87.95
2017-10-02T12:20:34.667Z,88.15
2017-10-02T12:21:55.595Z,87.95
2017-10-02T12:22:34.591Z,88.15
2017-10-02T12:23:34.552Z,88.15
2017-10-02T12:24:34.545Z,87.95
2017-10-02T12:25:34.521Z,88.43
2017-10-02T12:26:34.526Z,88.34
2017-10-02T12:27:55.499Z,88.43
2017-10-02T12:28:34.469Z,88.53
2017-10-02T12:29:34.459Z,88.62
2017-10-02T12:30:34.431Z,88.91
2017-10-02T12:31:34.419Z,89.01
2017-10-02T12:32:34.401Z,89.01
2017-10-02T12:33:55.378Z,89.58
2017-10-02T12:34:34.363Z,89.20
2017-10-02T12:35:34.342Z,89.39
2017-10-02T12:36:34.336Z,89.15
2017-10-02T12:37:34.324Z,89.15
2017-10-02T12:38:34.304Z,89.01
2017-10-02T12:39:55.309Z,89.20
2017-10-02T12:40:34.273Z,89.48
2017-10-02T12:41:34.252Z,89.34
2017-10-02T12:42:34.250Z,89.15
2017-10-02T12:43:34.206Z,89.44
2017-10-02T12:44:34.202Z,89.44
2017-10-02T12:45:55.177Z,89.82
2017-10-02T12:46:34.151Z,89.82
2017-10-02T12:47:34.196Z,89.73
2017-10-02T12:48:34.156Z,89.67
2017-10-02T12:49:34.111Z,89.44
2017-10-02T12:50:34.089Z,89.10
2017-10-02T12:51:55.078Z,89.34
2017-10-02T12:52:34.053Z,89.48